createdAt,value
2018-09-13T00:00:12.235Z,9.83
2018-09-13T00:02:41.517Z,7.70
2018-09-13T00:05:10.528Z,9.70
2018-09-13T00:07:39.544Z,8.53
2018-09-13T00:10:08.532Z,7.70
2018-09-13T00:12:37.456Z,10.53
2018-09-13T00:15:07.424Z,10.93
2018-09-13T00:17:36.701Z,9.97
2018-09-13T00:20:05.772Z,10.00
2018-09-13T00:22:34.751Z,9.20
2018-09-13T00:25:04.097Z,9.20
2018-09-13T00:27:32.986Z,10.27
2018-09-13T00:30:01.926Z,9.30
2018-09-13T00:32:31.185Z,10.27
2018-09-13T00:35:00.097Z,11.40
2018-09-13T00:37:29.066Z,10.13
2018-09-13T00:39:58.314Z,10.70
2018-09-13T00:42:27.177Z,12.13
2018-09-13T00:44:56.075Z,11.10
2018-09-13T00:47:25.313Z,11.17
2018-09-13T00:49:54.234Z,12.27
2018-09-13T00:52:23.112Z,10.20
2018-09-13T00:54:52.332Z,9.63
2018-09-13T00:57:21.237Z,11.97
2018-09-13T00:59:50.133Z,9.67
2018-09-13T01:02:19.289Z,10.73
2018-09-13T01:04:48.259Z,10.30
2018-09-13T01:07:17.238Z,10.37
2018-09-13T01:09:46.542Z,11.60
2018-09-13T01:12:15.390Z,10.23
2018-09-13T01:14:44.217Z,9.93
2018-09-13T01:17:13.451Z,12.03
2018-09-13T01:19:42.424Z,9.87
2018-09-13T01:22:11.420Z,12.07
2018-09-13T01:24:40.320Z,11.50
2018-09-13T01:27:09.391Z,11.37
2018-09-13T01:29:38.265Z,11.47
2018-09-13T01:32:07.488Z,10.20
2018-09-13T01:34:36.388Z,9.93
2018-09-13T01:37:05.235Z,10.20
2018-09-13T01:39:34.116Z,12.87
2018-09-13T01:42:02.989Z,9.33
2018-09-13T01:44:31.932Z,10.07
2018-09-13T01:47:01.212Z,9.40
2018-09-13T01:49:30.228Z,10.53
2018-09-13T01:51:59.192Z,10.23
2018-09-13T01:54:28.089Z,10.20
2018-09-13T01:56:57.107Z,13.27
2018-09-13T01:59:26.067Z,14.53
2018-09-13T02:01:55.042Z,10.67
2018-09-13T02:04:23.857Z,8.93
2018-09-13T02:06:52.794Z,9.03
2018-09-13T02:09:21.690Z,9.00
2018-09-13T02:11:50.613Z,8.93
2018-09-13T02:14:19.559Z,11.20
2018-09-13T02:16:48.408Z,8.23
2018-09-13T02:19:17.398Z,8.33
2018-09-13T02:21:46.317Z,8.77
2018-09-13T02:24:15.266Z,8.60
2018-09-13T02:26:44.263Z,8.80
2018-09-13T02:29:13.170Z,9.27
2018-09-13T02:31:42.179Z,8.60
2018-09-13T02:34:11.149Z,10.03
2018-09-13T02:36:40.034Z,9.10
2018-09-13T02:39:10.418Z,10.97
2018-09-13T02:41:39.715Z,10.97
2018-09-13T02:44:08.770Z,10.73
2018-09-13T02:46:38.339Z,11.10
2018-09-13T02:49:07.426Z,11.77
2018-09-13T02:51:36.290Z,14.97
2018-09-13T02:54:05.218Z,12.23
2018-09-13T02:56:34.162Z,11.40
2018-09-13T02:59:03.158Z,12.70
2018-09-13T03:01:32.229Z,13.13
2018-09-13T03:04:01.128Z,13.50
2018-09-13T03:06:30.709Z,13.87
2018-09-13T03:08:59.625Z,32.43
2018-09-13T03:11:28.678Z,11.37
2018-09-13T03:13:57.591Z,12.23
2018-09-13T03:16:26.513Z,14.03
2018-09-13T03:18:55.593Z,11.97
2018-09-13T03:21:24.552Z,12.93
2018-09-13T03:23:53.483Z,15.43
2018-09-13T03:26:22.328Z,15.57
2018-09-13T03:28:51.374Z,13.07
2018-09-13T03:31:20.249Z,14.30
2018-09-13T03:33:49.195Z,13.90
2018-09-13T03:36:18.307Z,11.30
2018-09-13T03:38:47.244Z,11.97
2018-09-13T03:41:16.256Z,11.60
2018-09-13T03:43:45.230Z,11.90
2018-09-13T03:46:14.301Z,12.57
2018-09-13T03:48:43.208Z,10.80
2018-09-13T03:51:45.513Z,11.87
2018-09-13T03:54:14.372Z,10.90
2018-09-13T03:56:43.260Z,10.50
2018-09-13T03:59:12.135Z,11.20
2018-09-13T04:01:41.068Z,13.73
2018-09-13T04:04:09.995Z,13.53
2018-09-13T04:06:38.891Z,10.57
2018-09-13T04:09:09.973Z,9.60
2018-09-13T04:11:38.943Z,9.10
2018-09-13T04:14:08.038Z,10.67
2018-09-13T04:16:36.844Z,8.90
2018-09-13T04:19:05.773Z,10.43
2018-09-13T04:21:34.640Z,9.10
2018-09-13T04:24:03.732Z,8.60
2018-09-13T04:26:32.681Z,11.40
2018-09-13T04:29:01.522Z,10.93
2018-09-13T04:31:30.359Z,9.10
2018-09-13T04:33:59.283Z,12.10
2018-09-13T04:36:28.150Z,10.70
2018-09-13T04:38:57.100Z,13.07
2018-09-13T04:41:25.940Z,10.87
2018-09-13T04:43:54.964Z,10.93
2018-09-13T04:46:23.939Z,11.03
2018-09-13T04:48:52.749Z,11.03
2018-09-13T04:51:21.699Z,12.10
2018-09-13T04:53:50.568Z,14.57
2018-09-13T04:56:19.506Z,11.60
2018-09-13T04:58:48.352Z,12.07
2018-09-13T05:01:17.385Z,14.10
2018-09-13T05:03:46.219Z,14.57
2018-09-13T05:06:15.112Z,12.43
2018-09-13T05:08:43.979Z,14.30
2018-09-13T05:11:12.769Z,11.10
2018-09-13T05:13:41.625Z,13.23
2018-09-13T05:16:10.435Z,12.47
2018-09-13T05:18:39.351Z,11.47
2018-09-13T05:21:08.614Z,12.83
2018-09-13T05:23:37.479Z,10.20
2018-09-13T05:26:06.437Z,10.80
2018-09-13T05:28:35.405Z,15.40
2018-09-13T05:31:04.405Z,12.87
2018-09-13T05:33:33.330Z,9.83
2018-09-13T05:36:02.239Z,9.70
2018-09-13T05:38:31.261Z,11.00
2018-09-13T05:41:00.149Z,11.00
2018-09-13T05:43:29.029Z,11.60
2018-09-13T05:45:58.031Z,8.80
2018-09-13T05:48:26.922Z,10.57
2018-09-13T05:50:55.946Z,12.33
2018-09-13T05:53:24.745Z,11.97
2018-09-13T05:55:53.604Z,17.10
2018-09-13T05:58:22.447Z,12.30
2018-09-13T06:00:51.391Z,14.73
2018-09-13T06:03:20.390Z,19.53
2018-09-13T06:05:49.531Z,20.73
2018-09-13T06:08:18.349Z,18.77
2018-09-13T06:10:47.280Z,18.20
2018-09-13T06:13:16.218Z,14.73
2018-09-13T06:15:45.203Z,14.97
2018-09-13T06:18:14.235Z,16.10
2018-09-13T06:20:43.243Z,16.87
2018-09-13T06:23:12.192Z,17.63
2018-09-13T06:25:41.269Z,13.97
2018-09-13T06:28:10.149Z,14.67
2018-09-13T06:30:39.012Z,19.37
2018-09-13T06:33:08.014Z,17.57
2018-09-13T06:35:36.934Z,15.20
2018-09-13T06:38:05.890Z,16.60
2018-09-13T06:40:34.776Z,17.53
2018-09-13T06:43:03.707Z,15.53
2018-09-13T06:45:32.511Z,23.83
2018-09-13T06:48:01.506Z,16.57
2018-09-13T06:50:30.567Z,17.40
2018-09-13T06:52:59.521Z,20.57
2018-09-13T06:55:28.345Z,21.83
2018-09-13T06:57:57.274Z,17.97
2018-09-13T07:00:26.292Z,13.20
2018-09-13T07:02:55.285Z,15.37
2018-09-13T07:05:24.772Z,13.27
2018-09-13T07:07:53.653Z,11.97
2018-09-13T07:10:22.953Z,14.80
2018-09-13T07:12:51.846Z,12.93
2018-09-13T07:15:20.792Z,13.10
2018-09-13T07:17:49.681Z,12.13
2018-09-13T07:20:18.620Z,13.83
2018-09-13T07:22:47.476Z,15.53
2018-09-13T07:25:16.405Z,12.50
2018-09-13T07:27:45.283Z,15.37
2018-09-13T07:30:14.190Z,13.80
2018-09-13T07:32:43.043Z,13.90
2018-09-13T07:35:11.873Z,13.70
2018-09-13T07:37:40.769Z,12.70
2018-09-13T07:40:09.733Z,14.97
2018-09-13T07:42:38.603Z,17.43
2018-09-13T07:45:07.601Z,14.57
2018-09-13T07:47:36.570Z,14.70
2018-09-13T07:50:05.570Z,15.67
2018-09-13T07:52:34.529Z,12.53
2018-09-13T07:55:03.419Z,17.13
2018-09-13T07:57:32.318Z,14.67
2018-09-13T08:00:01.250Z,11.97
2018-09-13T08:02:30.223Z,15.07
2018-09-13T08:04:59.157Z,14.20
2018-09-13T08:07:27.954Z,13.57
2018-09-13T08:09:56.881Z,13.13
2018-09-13T08:12:25.783Z,12.00
2018-09-13T08:14:54.653Z,10.20
2018-09-13T08:17:23.975Z,12.30
2018-09-13T08:19:52.906Z,10.00
2018-09-13T08:22:21.856Z,8.40
2018-09-13T08:24:51.083Z,10.67
2018-09-13T08:27:20.063Z,8.27
2018-09-13T08:29:48.898Z,8.07
2018-09-13T08:32:18.108Z,7.57
2018-09-13T08:34:47.044Z,7.10
2018-09-13T08:37:16.010Z,8.13
2018-09-13T08:39:44.983Z,6.33
2018-09-13T08:42:13.789Z,4.87
2018-09-13T08:44:42.761Z,6.53
2018-09-13T08:47:11.961Z,6.97
2018-09-13T08:49:40.859Z,5.03
2018-09-13T08:52:09.796Z,5.07
2018-09-13T08:54:38.632Z,5.93
2018-09-13T08:57:07.622Z,4.83
2018-09-13T08:59:36.453Z,4.30
2018-09-13T09:02:05.789Z,6.40
2018-09-13T09:04:34.704Z,6.10
2018-09-13T09:07:03.568Z,5.60
2018-09-13T09:09:32.510Z,5.37
2018-09-13T09:12:01.530Z,4.93
2018-09-13T09:14:30.309Z,4.97
2018-09-13T09:16:59.568Z,5.10
2018-09-13T09:19:28.451Z,5.73
2018-09-13T09:21:57.547Z,4.67
2018-09-13T09:24:26.800Z,7.07
2018-09-13T09:26:55.672Z,8.20
2018-09-13T09:29:24.522Z,6.87
2018-09-13T09:31:53.774Z,4.77
2018-09-13T09:34:22.685Z,7.13
2018-09-13T09:36:51.494Z,4.93
2018-09-13T09:39:20.452Z,4.40
2018-09-13T09:41:49.282Z,5.07
2018-09-13T09:44:18.170Z,8.77
2018-09-13T09:46:46.997Z,6.97
2018-09-13T09:49:15.838Z,5.53
2018-09-13T09:51:44.822Z,5.53
2018-09-13T09:54:13.676Z,5.80
2018-09-13T09:56:42.497Z,4.80
2018-09-13T09:59:11.358Z,5.00
2018-09-13T10:01:45.291Z,6.73
2018-09-13T10:04:14.309Z,8.43
2018-09-13T10:06:43.197Z,5.20
2018-09-13T10:09:12.167Z,5.43
2018-09-13T10:11:41.000Z,5.77
2018-09-13T10:14:09.980Z,6.93
2018-09-13T10:17:43.617Z,6.90
2018-09-13T10:20:17.671Z,5.00
2018-09-13T10:22:52.056Z,4.13
2018-09-13T10:25:26.083Z,6.73
2018-09-13T10:28:00.061Z,5.30
2018-09-13T10:30:34.018Z,4.57
2018-09-13T10:33:08.536Z,5.20
2018-09-13T10:35:42.574Z,5.83
2018-09-13T10:38:16.904Z,5.43
2018-09-13T10:40:50.729Z,9.70
2018-09-13T10:43:24.707Z,5.10
2018-09-13T10:45:58.938Z,6.40
2018-09-13T10:48:29.171Z,8.33
2018-09-13T10:51:03.692Z,5.87
2018-09-13T10:54:10.876Z,5.77
2018-09-13T10:56:40.506Z,5.10
2018-09-13T10:59:09.383Z,5.47
2018-09-13T11:01:38.836Z,10.33
2018-09-13T11:04:08.274Z,5.57
2018-09-13T11:06:37.172Z,6.70
2018-09-13T11:09:06.752Z,5.23
2018-09-13T11:11:36.095Z,6.67
2018-09-13T11:14:12.128Z,6.53
2018-09-13T11:16:41.345Z,6.60
2018-09-13T11:19:10.217Z,5.90
2018-09-13T11:21:39.894Z,6.67
2018-09-13T11:24:09.689Z,6.10
2018-09-13T11:26:38.539Z,9.30
2018-09-13T11:29:07.384Z,4.97
2018-09-13T11:31:36.664Z,6.87
2018-09-13T11:34:05.590Z,4.83
2018-09-13T11:36:35.310Z,5.17
2018-09-13T11:39:06.287Z,4.93
2018-09-13T11:41:35.140Z,6.30
2018-09-13T11:44:03.944Z,6.70
2018-09-13T11:46:33.091Z,4.47
2018-09-13T11:49:01.887Z,4.27
2018-09-13T11:51:30.738Z,7.57
2018-09-13T11:53:59.891Z,4.10
2018-09-13T11:56:28.771Z,4.83
2018-09-13T11:58:57.635Z,6.37
2018-09-13T12:01:26.593Z,4.83
2018-09-13T12:03:55.458Z,4.93
2018-09-13T12:06:24.367Z,6.50
2018-09-13T12:08:53.534Z,4.70
2018-09-13T12:11:22.396Z,4.50
2018-09-13T12:13:51.221Z,5.17
2018-09-13T12:16:20.606Z,6.37
2018-09-13T12:18:49.605Z,6.67
2018-09-13T12:21:18.917Z,8.03
2018-09-13T12:23:48.146Z,4.97
2018-09-13T12:26:17.023Z,5.37
2018-09-13T12:28:45.872Z,6.87
2018-09-13T12:31:15.459Z,5.50
2018-09-13T12:33:44.417Z,4.60
2018-09-13T12:36:13.281Z,5.10
2018-09-13T12:38:42.211Z,5.57
2018-09-13T12:41:11.029Z,6.07
2018-09-13T12:43:39.848Z,4.40
2018-09-13T12:46:09.161Z,6.87
2018-09-13T12:48:38.164Z,6.67
2018-09-13T12:51:07.259Z,4.40
2018-09-13T12:53:36.643Z,4.67
2018-09-13T12:56:05.825Z,4.47
2018-09-13T12:58:34.940Z,4.50
2018-09-13T13:01:04.199Z,10.10
2018-09-13T13:03:33.101Z,4.43
2018-09-13T13:06:02.101Z,5.13
2018-09-13T13:08:31.515Z,10.07
2018-09-13T13:11:00.521Z,3.83
2018-09-13T13:13:29.456Z,6.13
2018-09-13T13:15:58.400Z,5.47
2018-09-13T13:18:27.387Z,3.83
2018-09-13T13:20:56.444Z,4.10
2018-09-13T13:23:25.770Z,3.50
2018-09-13T13:25:55.662Z,4.00
2018-09-13T13:28:24.569Z,4.03
2018-09-13T13:30:53.846Z,3.60
2018-09-13T13:33:22.731Z,4.03
2018-09-13T13:35:51.618Z,5.13
2018-09-13T13:38:20.858Z,4.10
2018-09-13T13:40:49.844Z,3.40
2018-09-13T13:43:19.315Z,4.03
2018-09-13T13:45:48.685Z,3.50
2018-09-13T13:48:17.661Z,4.10
2018-09-13T13:50:46.606Z,4.10
2018-09-13T13:53:15.533Z,5.20
2018-09-13T13:55:44.482Z,3.70
2018-09-13T13:58:13.564Z,3.70
2018-09-13T14:00:42.598Z,5.00
2018-09-13T14:03:11.626Z,5.07
2018-09-13T14:05:40.685Z,3.60
2018-09-13T14:08:10.026Z,3.03
2018-09-13T14:10:39.182Z,3.67
2018-09-13T14:13:08.224Z,5.40
2018-09-13T14:15:37.252Z,3.37
2018-09-13T14:18:06.647Z,4.07
2018-09-13T14:20:35.754Z,3.20
2018-09-13T14:23:05.152Z,3.60
2018-09-13T14:25:34.205Z,3.13
2018-09-13T14:28:03.281Z,2.43
2018-09-13T14:30:32.295Z,2.50
2018-09-13T14:33:01.309Z,2.70
2018-09-13T14:35:30.338Z,4.33
2018-09-13T14:37:59.455Z,2.70
2018-09-13T14:40:28.581Z,2.60
2018-09-13T14:42:57.643Z,3.00
2018-09-13T14:45:27.007Z,2.63
2018-09-13T14:47:56.052Z,3.17
2018-09-13T14:50:25.057Z,2.40
2018-09-13T14:52:54.433Z,3.83
2018-09-13T14:55:23.511Z,2.90
2018-09-13T14:57:52.536Z,4.17
2018-09-13T15:00:21.897Z,2.90
2018-09-13T15:02:50.960Z,3.33
2018-09-13T15:05:19.996Z,5.10
2018-09-13T15:07:49.494Z,3.53
2018-09-13T15:10:18.439Z,3.50
2018-09-13T15:12:47.689Z,3.50
2018-09-13T15:15:16.807Z,4.27
2018-09-13T15:17:45.835Z,7.10
2018-09-13T15:20:14.933Z,4.30
2018-09-13T15:22:44.448Z,4.53
2018-09-13T15:25:13.443Z,3.60
2018-09-13T15:27:42.367Z,5.03
2018-09-13T15:30:11.680Z,3.50
2018-09-13T15:32:40.715Z,3.77
2018-09-13T15:35:09.739Z,3.30
2018-09-13T15:37:39.080Z,3.90
2018-09-13T15:40:08.105Z,4.33
2018-09-13T15:42:37.149Z,3.57
2018-09-13T15:45:06.424Z,4.33
2018-09-13T15:47:35.443Z,7.97
2018-09-13T15:50:04.536Z,3.73
2018-09-13T15:52:33.868Z,2.97
2018-09-13T15:55:02.853Z,7.43
2018-09-13T15:57:31.977Z,5.00
2018-09-13T16:00:00.974Z,3.43
2018-09-13T16:02:30.035Z,3.70
2018-09-13T16:04:59.119Z,9.00
2018-09-13T16:07:28.164Z,3.53
2018-09-13T16:09:57.102Z,3.67
2018-09-13T16:12:27.179Z,6.57
2018-09-13T16:14:56.412Z,4.97
2018-09-13T16:17:25.468Z,4.33
2018-09-13T16:19:54.620Z,3.17
2018-09-13T16:22:23.966Z,3.47
2018-09-13T16:24:52.986Z,4.60
2018-09-13T16:27:22.140Z,4.70
2018-09-13T16:29:51.555Z,2.97
2018-09-13T16:32:22.725Z,6.03
2018-09-13T16:34:52.396Z,5.83
2018-09-13T16:37:26.452Z,5.63
2018-09-13T16:40:05.206Z,8.07
2018-09-13T16:42:42.144Z,10.00
2018-09-13T16:45:12.564Z,9.50
2018-09-13T16:47:46.845Z,10.00
2018-09-13T16:50:15.878Z,9.00
2018-09-13T16:52:44.813Z,7.73
2018-09-13T16:55:13.784Z,12.00
2018-09-13T16:57:43.068Z,6.23
2018-09-13T17:00:11.986Z,6.10
2018-09-13T17:02:40.981Z,12.70
2018-09-13T17:05:10.132Z,6.87
2018-09-13T17:07:39.176Z,5.03
2018-09-13T17:10:08.245Z,3.60
2018-09-13T17:12:37.417Z,6.17
2018-09-13T17:15:06.663Z,3.73
2018-09-13T17:17:35.568Z,4.80
2018-09-13T17:20:04.869Z,3.40
2018-09-13T17:22:33.817Z,3.93
2018-09-13T17:25:02.901Z,3.60
2018-09-13T17:27:32.332Z,7.97
2018-09-13T17:30:01.390Z,6.63
2018-09-13T17:32:30.395Z,10.20
2018-09-13T17:34:59.434Z,6.97
2018-09-13T17:37:28.390Z,5.93
2018-09-13T17:39:57.346Z,7.70
2018-09-13T17:42:26.453Z,6.93
2018-09-13T17:44:55.494Z,6.53
2018-09-13T17:47:24.411Z,5.07
2018-09-13T17:49:53.447Z,7.00
2018-09-13T17:52:22.439Z,6.30
2018-09-13T17:54:51.517Z,6.73
2018-09-13T17:57:20.468Z,7.70
2018-09-13T17:59:49.365Z,10.00
2018-09-13T18:02:18.324Z,6.57
2018-09-13T18:04:47.156Z,4.93
2018-09-13T18:07:16.068Z,6.23
2018-09-13T18:09:44.964Z,8.83
2018-09-13T18:12:13.861Z,4.37
2018-09-13T18:14:42.814Z,5.30
2018-09-13T18:17:11.643Z,5.20
2018-09-13T18:19:40.504Z,3.10
2018-09-13T18:22:09.330Z,7.00
2018-09-13T18:24:38.220Z,4.97
2018-09-13T18:27:07.084Z,5.03
2018-09-13T18:29:36.019Z,6.30
2018-09-13T18:32:04.954Z,4.53
2018-09-13T18:34:33.918Z,7.23
2018-09-13T18:37:02.853Z,5.00
2018-09-13T18:39:31.860Z,5.90
2018-09-13T18:42:00.805Z,3.63
2018-09-13T18:44:29.788Z,8.00
2018-09-13T18:46:58.691Z,5.70
2018-09-13T18:49:27.676Z,4.57
2018-09-13T18:51:56.707Z,4.77
2018-09-13T18:54:25.714Z,4.47
2018-09-13T18:56:54.947Z,8.13
2018-09-13T18:59:23.929Z,4.27
2018-09-13T19:01:52.795Z,7.70
2018-09-13T19:04:21.709Z,6.07
2018-09-13T19:06:50.799Z,5.00
2018-09-13T19:09:19.736Z,7.00
2018-09-13T19:11:48.607Z,5.50
2018-09-13T19:14:17.786Z,4.13
2018-09-13T19:16:46.767Z,4.73
2018-09-13T19:19:15.746Z,4.00
2018-09-13T19:21:44.708Z,3.63
2018-09-13T19:24:13.657Z,5.10
2018-09-13T19:26:42.594Z,3.97
2018-09-13T19:29:11.582Z,4.97
2018-09-13T19:31:40.585Z,5.97
2018-09-13T19:34:09.807Z,6.17
2018-09-13T19:36:38.819Z,4.47
2018-09-13T19:39:10.690Z,5.77
2018-09-13T19:41:39.899Z,6.23
2018-09-13T19:44:08.875Z,7.57
2018-09-13T19:46:37.872Z,6.73
2018-09-13T19:49:06.959Z,4.77
2018-09-13T19:51:35.942Z,4.80
2018-09-13T19:54:04.866Z,8.83
2018-09-13T19:56:33.775Z,5.30
2018-09-13T19:59:02.708Z,5.90
2018-09-13T20:01:31.546Z,7.43
2018-09-13T20:04:00.485Z,4.63
2018-09-13T20:06:29.335Z,5.83
2018-09-13T20:08:58.267Z,5.40
2018-09-13T20:11:27.186Z,6.37
2018-09-13T20:13:56.352Z,7.03
2018-09-13T20:16:25.226Z,4.80
2018-09-13T20:18:54.517Z,5.63
2018-09-13T20:21:23.446Z,6.13
2018-09-13T20:23:52.391Z,4.30
2018-09-13T20:26:21.313Z,5.00
2018-09-13T20:28:50.352Z,10.57
2018-09-13T20:31:19.199Z,6.10
2018-09-13T20:33:48.109Z,7.50
2018-09-13T20:36:16.981Z,4.77
2018-09-13T20:38:45.951Z,6.77
2018-09-13T20:41:14.893Z,8.23
2018-09-13T20:43:43.844Z,4.07
2018-09-13T20:46:13.154Z,4.47
2018-09-13T20:48:42.111Z,4.40
2018-09-13T20:51:11.027Z,5.70
2018-09-13T20:53:39.975Z,4.37
2018-09-13T20:56:08.836Z,4.63
2018-09-13T20:58:37.740Z,4.60
2018-09-13T21:01:06.698Z,5.80
2018-09-13T21:03:35.511Z,4.20
2018-09-13T21:06:04.457Z,4.10
2018-09-13T21:08:33.355Z,4.17
2018-09-13T21:11:02.210Z,5.27
2018-09-13T21:13:31.189Z,3.90
2018-09-13T21:16:00.123Z,4.33
2018-09-13T21:18:29.168Z,3.97
2018-09-13T21:20:58.043Z,8.10
2018-09-13T21:23:27.310Z,5.43
2018-09-13T21:25:56.388Z,6.50
2018-09-13T21:28:25.323Z,5.87
2018-09-13T21:30:54.353Z,8.77
2018-09-13T21:33:23.257Z,5.50
2018-09-13T21:35:52.208Z,6.80
2018-09-13T21:38:21.063Z,4.27
2018-09-13T21:40:49.952Z,4.33
2018-09-13T21:43:18.820Z,4.27
2018-09-13T21:45:47.724Z,5.23
2018-09-13T21:48:16.663Z,7.50
2018-09-13T21:50:45.663Z,3.97
2018-09-13T21:53:14.524Z,4.50
2018-09-13T21:55:44.107Z,4.40
2018-09-13T21:58:13.052Z,3.73
2018-09-13T22:00:41.945Z,4.10
2018-09-13T22:03:10.919Z,4.10
2018-09-13T22:05:39.753Z,4.20
2018-09-13T22:08:08.588Z,3.93
2018-09-13T22:10:37.519Z,4.67
2018-09-13T22:13:06.535Z,5.93
2018-09-13T22:15:35.571Z,4.40
2018-09-13T22:18:04.536Z,4.20
2018-09-13T22:20:33.516Z,3.97
2018-09-13T22:23:02.366Z,4.27
2018-09-13T22:25:31.464Z,5.40
2018-09-13T22:28:00.390Z,4.10
2018-09-13T22:30:29.197Z,3.90
2018-09-13T22:32:58.020Z,4.13
2018-09-13T22:35:26.922Z,3.73
2018-09-13T22:37:55.773Z,4.07
2018-09-13T22:40:24.694Z,3.80
2018-09-13T22:42:53.652Z,3.53
2018-09-13T22:45:22.470Z,4.53
2018-09-13T22:47:51.335Z,4.20
2018-09-13T22:50:20.184Z,4.83
2018-09-13T22:52:48.987Z,4.27
2018-09-13T22:55:17.868Z,4.30
2018-09-13T22:57:46.783Z,4.50
2018-09-13T23:00:15.766Z,3.40
2018-09-13T23:02:49.293Z,3.53
2018-09-13T23:05:19.245Z,4.87
2018-09-13T23:07:48.240Z,3.73
2018-09-13T23:10:17.577Z,4.10
2018-09-13T23:12:46.809Z,3.60
2018-09-13T23:15:15.784Z,3.90
2018-09-13T23:17:44.794Z,3.70
2018-09-13T23:20:13.931Z,6.60
2018-09-13T23:22:42.885Z,4.10
2018-09-13T23:25:11.786Z,3.90
2018-09-13T23:27:40.608Z,3.97
2018-09-13T23:30:09.533Z,4.33
2018-09-13T23:32:38.388Z,4.57
2018-09-13T23:35:07.352Z,4.17
2018-09-13T23:37:36.156Z,3.67
2018-09-13T23:40:05.119Z,4.47
2018-09-13T23:42:33.964Z,4.93
2018-09-13T23:45:02.842Z,3.93
2018-09-13T23:47:31.770Z,4.50
2018-09-13T23:50:00.698Z,4.40
2018-09-13T23:52:29.586Z,3.77
2018-09-13T23:54:58.400Z,4.03
2018-09-13T23:57:27.246Z,4.17
2018-09-13T23:59:56.057Z,4.97
